createdAt,value
2023-03-22T00:00:17.545Z,16.50
2023-03-22T00:02:47.328Z,16.40
2023-03-22T00:05:14.746Z,16.50
2023-03-22T00:07:50.262Z,16.40
2023-03-22T00:10:20.668Z,16.40
2023-03-22T00:12:50.439Z,16.40
2023-03-22T00:15:22.880Z,16.40
2023-03-22T00:17:53.231Z,16.40
2023-03-22T00:20:25.721Z,16.40
2023-03-22T00:22:55.840Z,16.40
2023-03-22T00:25:23.457Z,16.40
2023-03-22T00:27:51.031Z,16.40
2023-03-22T00:30:23.218Z,16.40
2023-03-22T00:32:50.740Z,16.40
2023-03-22T00:35:20.558Z,16.40
2023-03-22T00:37:51.621Z,16.40
2023-03-22T00:40:19.089Z,16.40
2023-03-22T00:42:49.178Z,16.30
2023-03-22T00:45:21.671Z,16.40
2023-03-22T00:47:51.121Z,16.30
2023-03-22T00:50:20.617Z,16.30
2023-03-22T00:52:50.401Z,16.30
2023-03-22T00:55:17.825Z,16.30
2023-03-22T00:57:47.272Z,16.20
2023-03-22T01:00:17.538Z,16.20
2023-03-22T01:02:49.429Z,16.20
2023-03-22T01:05:17.820Z,16.20
2023-03-22T01:07:50.811Z,16.20
2023-03-22T01:10:19.097Z,16.20
2023-03-22T01:12:51.711Z,16.20
2023-03-22T01:15:19.221Z,16.20
2023-03-22T01:17:48.733Z,16.20
2023-03-22T01:20:18.502Z,16.10
2023-03-22T01:22:48.059Z,16.10
2023-03-22T01:25:19.589Z,16.10
2023-03-22T01:27:47.101Z,16.10
2023-03-22T01:30:14.869Z,16.10
2023-03-22T01:32:42.606Z,16.20
2023-03-22T01:35:10.538Z,16.10
2023-03-22T01:37:38.011Z,16.10
2023-03-22T01:40:06.479Z,16.10
2023-03-22T01:42:34.097Z,16.10
2023-03-22T01:45:16.813Z,16.10
2023-03-22T01:48:06.388Z,16.10
2023-03-22T01:50:33.925Z,16.10
2023-03-22T01:53:05.315Z,16.10
2023-03-22T01:55:38.956Z,16.10
2023-03-22T01:58:06.486Z,16.00
2023-03-22T02:00:34.327Z,16.00
2023-03-22T02:03:03.117Z,16.00
2023-03-22T02:05:34.201Z,16.00
2023-03-22T02:08:09.117Z,16.00
2023-03-22T02:10:43.559Z,15.90
2023-03-22T02:13:22.027Z,15.90
2023-03-22T02:16:11.949Z,15.90
2023-03-22T02:19:04.333Z,15.90
2023-03-22T02:22:09.902Z,15.90
2023-03-22T02:24:55.592Z,15.90
2023-03-22T02:27:50.638Z,15.90
2023-03-22T02:30:23.949Z,15.80
2023-03-22T02:33:09.939Z,15.90
2023-03-22T02:35:55.946Z,15.90
2023-03-22T02:39:04.627Z,15.80
2023-03-22T02:41:48.185Z,15.80
2023-03-22T02:44:28.167Z,15.80
2023-03-22T02:47:34.452Z,15.80
2023-03-22T02:50:14.224Z,15.80
2023-03-22T02:52:51.121Z,15.80
2023-03-22T02:55:29.598Z,15.80
2023-03-22T02:58:13.044Z,15.80
2023-03-22T03:00:46.546Z,15.80
2023-03-22T03:03:18.374Z,15.80
2023-03-22T03:05:50.994Z,15.80
2023-03-22T03:08:22.112Z,15.80
2023-03-22T03:10:54.307Z,15.70
2023-03-22T03:13:22.147Z,15.70
2023-03-22T03:15:54.521Z,15.70
2023-03-22T03:18:32.395Z,15.70
2023-03-22T03:21:32.648Z,15.70
2023-03-22T03:24:18.498Z,15.70
2023-03-22T03:27:25.759Z,15.60
2023-03-22T03:30:23.139Z,15.60
2023-03-22T03:33:06.779Z,15.60
2023-03-22T03:35:53.452Z,15.60
2023-03-22T03:38:27.173Z,15.50
2023-03-22T03:41:06.720Z,15.50
2023-03-22T03:43:35.739Z,15.50
2023-03-22T03:46:03.648Z,15.50
2023-03-22T03:48:35.118Z,15.50
2023-03-22T03:51:03.070Z,15.40
2023-03-22T03:53:32.708Z,15.40
2023-03-22T03:56:00.032Z,15.40
2023-03-22T03:58:32.009Z,15.40
2023-03-22T04:01:03.769Z,15.40
2023-03-22T04:03:32.068Z,15.40
2023-03-22T04:05:59.918Z,15.30
2023-03-22T04:08:29.490Z,15.30
2023-03-22T04:10:58.875Z,15.30
2023-03-22T04:13:30.662Z,15.30
2023-03-22T04:16:02.152Z,15.30
2023-03-22T04:18:34.123Z,15.20
2023-03-22T04:21:01.560Z,15.20
2023-03-22T04:23:29.337Z,15.20
2023-03-22T04:25:59.836Z,15.20
2023-03-22T04:28:29.365Z,15.20
2023-03-22T04:30:59.416Z,15.10
2023-03-22T04:33:32.609Z,15.10
2023-03-22T04:36:04.430Z,15.10
2023-03-22T04:38:34.397Z,15.10
2023-03-22T04:41:06.792Z,15.10
2023-03-22T04:43:35.079Z,15.00
2023-03-22T04:46:10.021Z,15.00
2023-03-22T04:48:39.283Z,14.90
2023-03-22T04:51:11.086Z,15.00
2023-03-22T04:53:45.824Z,14.90
2023-03-22T04:56:14.405Z,14.90
2023-03-22T04:58:46.063Z,14.90
2023-03-22T05:01:14.258Z,14.80
2023-03-22T05:03:45.810Z,14.90
2023-03-22T05:06:13.763Z,14.90
2023-03-22T05:08:43.257Z,14.90
2023-03-22T05:11:20.662Z,14.80
2023-03-22T05:13:48.188Z,14.80
2023-03-22T05:16:15.744Z,14.70
2023-03-22T05:18:45.574Z,14.70
2023-03-22T05:21:17.963Z,14.70
2023-03-22T05:23:51.033Z,14.70
2023-03-22T05:26:24.588Z,14.60
2023-03-22T05:28:56.060Z,14.60
2023-03-22T05:31:28.835Z,14.60
2023-03-22T05:33:59.747Z,14.60
2023-03-22T05:36:29.861Z,14.60
2023-03-22T05:38:59.873Z,14.60
2023-03-22T05:41:27.493Z,14.60
2023-03-22T05:43:55.163Z,14.60
2023-03-22T05:46:22.797Z,14.50
2023-03-22T05:48:52.378Z,14.50
2023-03-22T05:51:25.693Z,14.50
2023-03-22T05:53:58.957Z,14.50
2023-03-22T05:56:26.810Z,14.60
2023-03-22T05:58:58.232Z,14.60
2023-03-22T06:01:28.229Z,14.60
2023-03-22T06:03:58.587Z,14.60
2023-03-22T06:06:28.466Z,14.70
2023-03-22T06:09:15.914Z,14.70
2023-03-22T06:11:50.372Z,14.70
2023-03-22T06:14:20.580Z,14.80
2023-03-22T06:16:50.092Z,14.80
2023-03-22T06:19:19.783Z,14.90
2023-03-22T06:21:52.056Z,14.90
2023-03-22T06:24:21.831Z,14.90
2023-03-22T06:26:49.608Z,14.90
2023-03-22T06:29:19.238Z,15.00
2023-03-22T06:31:49.807Z,15.00
2023-03-22T06:34:24.672Z,15.00
2023-03-22T06:36:54.549Z,15.10
2023-03-22T06:39:22.967Z,15.20
2023-03-22T06:41:53.026Z,15.20
2023-03-22T06:44:20.502Z,15.30
2023-03-22T06:46:48.134Z,15.30
2023-03-22T06:49:16.848Z,15.40
2023-03-22T06:51:44.241Z,15.40
2023-03-22T06:54:13.333Z,15.40
2023-03-22T06:56:47.950Z,15.50
2023-03-22T06:59:17.556Z,15.50
2023-03-22T07:01:48.538Z,15.60
2023-03-22T07:04:16.121Z,15.60
2023-03-22T07:06:54.935Z,15.60
2023-03-22T07:09:24.133Z,15.60
2023-03-22T07:11:53.766Z,15.70
2023-03-22T07:14:21.371Z,15.70
2023-03-22T07:16:51.155Z,15.80
2023-03-22T07:19:18.581Z,15.90
2023-03-22T07:21:48.040Z,16.00
2023-03-22T07:24:15.445Z,16.10
2023-03-22T07:26:43.069Z,16.30
2023-03-22T07:29:10.955Z,16.40
2023-03-22T07:31:39.693Z,16.60
2023-03-22T07:34:09.782Z,16.70
2023-03-22T07:36:39.652Z,16.90
2023-03-22T07:39:09.255Z,17.00
2023-03-22T07:41:36.657Z,17.10
2023-03-22T07:44:16.967Z,17.30
2023-03-22T07:46:48.013Z,17.40
2023-03-22T07:49:15.669Z,17.50
2023-03-22T07:51:43.605Z,17.60
2023-03-22T07:54:14.025Z,17.70
2023-03-22T07:56:48.088Z,17.80
2023-03-22T07:59:17.066Z,18.00
2023-03-22T08:01:49.628Z,18.10
2023-03-22T08:04:19.619Z,18.20
2023-03-22T08:06:54.974Z,18.30
2023-03-22T08:09:22.585Z,18.40
2023-03-22T08:11:52.492Z,18.50
2023-03-22T08:14:34.047Z,18.60
2023-03-22T08:17:04.236Z,18.70
2023-03-22T08:19:32.160Z,18.80
2023-03-22T08:21:59.963Z,18.90
2023-03-22T08:24:32.328Z,19.00
2023-03-22T08:27:05.571Z,19.10
2023-03-22T08:29:33.142Z,19.20
2023-03-22T08:32:02.540Z,19.30
2023-03-22T08:34:31.515Z,19.40
2023-03-22T08:37:03.885Z,19.50
2023-03-22T08:39:37.054Z,19.60
2023-03-22T08:42:07.317Z,19.70
2023-03-22T08:44:36.239Z,19.80
2023-03-22T08:47:03.902Z,19.80
2023-03-22T08:49:31.712Z,19.90
2023-03-22T08:52:01.555Z,20.00
2023-03-22T08:54:33.438Z,20.00
2023-03-22T08:57:03.656Z,20.10
2023-03-22T08:59:31.505Z,20.00
2023-03-22T09:01:59.458Z,20.10
2023-03-22T09:04:27.478Z,20.10
2023-03-22T09:06:58.266Z,20.10
2023-03-22T09:09:25.966Z,20.10
2023-03-22T09:11:53.780Z,20.20
2023-03-22T09:14:21.460Z,20.20
2023-03-22T09:16:49.072Z,20.20
2023-03-22T09:19:16.807Z,20.20
2023-03-22T09:21:44.455Z,20.30
2023-03-22T09:24:12.619Z,20.30
2023-03-22T09:26:40.365Z,20.30
2023-03-22T09:29:08.068Z,20.40
2023-03-22T09:31:35.665Z,20.40
2023-03-22T09:34:03.456Z,20.40
2023-03-22T09:36:32.531Z,20.40
2023-03-22T09:39:01.611Z,20.50
2023-03-22T09:41:46.644Z,20.60
2023-03-22T09:44:22.514Z,20.50
2023-03-22T09:46:54.085Z,20.60
2023-03-22T09:49:24.580Z,20.70
2023-03-22T09:51:54.400Z,20.70
2023-03-22T09:54:30.562Z,20.80
2023-03-22T09:57:24.474Z,20.80
2023-03-22T10:00:21.168Z,20.90
2023-03-22T10:03:21.998Z,21.00
2023-03-22T10:05:51.740Z,21.00
2023-03-22T10:08:27.408Z,21.10
2023-03-22T10:10:55.199Z,21.10
2023-03-22T10:13:34.565Z,21.20
2023-03-22T10:16:06.152Z,21.30
2023-03-22T10:18:45.396Z,21.30
2023-03-22T10:21:18.019Z,21.40
2023-03-22T10:23:55.945Z,21.40
2023-03-22T10:26:32.197Z,21.50
2023-03-22T10:29:12.466Z,21.50
2023-03-22T10:31:44.088Z,21.60
2023-03-22T10:34:33.858Z,21.60
2023-03-22T10:37:06.455Z,21.60
2023-03-22T10:39:41.176Z,21.70
2023-03-22T10:42:15.622Z,21.70
2023-03-22T10:44:53.864Z,21.80
2023-03-22T10:47:36.753Z,21.80
2023-03-22T10:50:13.786Z,21.90
2023-03-22T10:53:06.430Z,21.90
2023-03-22T10:55:41.903Z,22.00
2023-03-22T10:58:17.120Z,22.00
2023-03-22T11:00:53.945Z,22.10
2023-03-22T11:03:43.194Z,22.10
2023-03-22T11:06:23.273Z,22.20
2023-03-22T11:08:57.506Z,22.30
2023-03-22T11:11:38.655Z,22.30
2023-03-22T11:14:29.426Z,22.40
2023-03-22T11:17:06.393Z,22.50
2023-03-22T11:19:36.626Z,22.50
2023-03-22T11:22:31.627Z,22.60
2023-03-22T11:24:59.887Z,22.60
2023-03-22T11:27:36.580Z,22.70
2023-03-22T11:30:24.863Z,22.80
2023-03-22T11:33:26.079Z,22.80
2023-03-22T11:36:01.473Z,22.90
2023-03-22T11:38:44.231Z,22.90
2023-03-22T11:41:34.773Z,23.00
2023-03-22T11:44:10.353Z,23.00
2023-03-22T11:46:38.378Z,23.10
2023-03-22T11:49:09.289Z,23.10
2023-03-22T11:51:39.459Z,23.10
2023-03-22T11:54:35.693Z,23.20
2023-03-22T11:57:14.121Z,23.20
2023-03-22T12:00:01.972Z,23.20
2023-03-22T12:02:41.365Z,23.30
2023-03-22T12:05:19.494Z,23.30
2023-03-22T12:07:53.373Z,23.40
2023-03-22T12:10:26.815Z,23.50
2023-03-22T12:13:38.967Z,23.50
2023-03-22T12:16:13.172Z,23.60
2023-03-22T12:18:48.822Z,23.60
2023-03-22T12:21:18.201Z,23.60
2023-03-22T12:23:46.434Z,23.70
2023-03-22T12:26:26.491Z,23.70
2023-03-22T12:29:00.760Z,23.70
2023-03-22T12:31:33.520Z,23.70
2023-03-22T12:34:07.224Z,23.70
2023-03-22T12:36:42.985Z,23.70
2023-03-22T12:39:45.849Z,23.70
2023-03-22T12:42:40.453Z,23.70
2023-03-22T12:45:25.578Z,23.80
2023-03-22T12:48:10.940Z,23.80
2023-03-22T12:50:53.346Z,23.90
2023-03-22T12:53:27.061Z,23.90
2023-03-22T12:56:00.597Z,24.00
2023-03-22T12:58:35.055Z,24.00
2023-03-22T13:01:21.123Z,24.00
2023-03-22T13:03:54.891Z,24.10
2023-03-22T13:06:31.882Z,24.10
2023-03-22T13:09:18.429Z,24.10
2023-03-22T13:12:17.993Z,24.20
2023-03-22T13:14:56.302Z,24.20
2023-03-22T13:17:23.723Z,24.20
2023-03-22T13:20:07.023Z,24.20
2023-03-22T13:22:41.739Z,24.30
2023-03-22T13:25:17.269Z,24.30
2023-03-22T13:28:03.632Z,24.30
2023-03-22T13:30:47.999Z,24.30
2023-03-22T13:33:25.361Z,24.30
2023-03-22T13:36:25.120Z,24.20
2023-03-22T13:39:08.677Z,24.20
2023-03-22T13:41:36.690Z,24.10
2023-03-22T13:44:25.131Z,24.10
2023-03-22T13:46:57.406Z,24.00
2023-03-22T13:49:43.400Z,24.00
2023-03-22T13:52:24.661Z,24.00
2023-03-22T13:54:57.753Z,23.90
2023-03-22T13:57:49.285Z,23.90
2023-03-22T14:00:31.968Z,23.80
2023-03-22T14:03:20.421Z,23.80
2023-03-22T14:05:56.692Z,23.70
2023-03-22T14:08:28.514Z,23.70
2023-03-22T14:11:05.492Z,23.70
2023-03-22T14:13:46.005Z,23.60
2023-03-22T14:16:20.108Z,23.60
2023-03-22T14:18:49.917Z,23.50
2023-03-22T14:21:23.934Z,23.50
